Time;durP1;ratioP1;P1;durP2;ratioP2;P2;SDS_P1;SDS_P2;PMS_P1;PMS_P2;Temp;Humidity;BMP_temperature;BMP_pressure;BME280_temperature;BME280_humidity;BME280_pressure;Samples;Min_cycle;Max_cycle;Signal;HPM_P1;HPM_P2
2021/10/14 00:01:05;;;;;;;2.53;1.60;;;6.60;99.90;;;;;;5047363;28;20075;-79
2021/10/14 00:03:32;;;;;;;2.58;1.63;;;6.60;99.90;;;;;;5048535;28;20025;-79
2021/10/14 00:05:58;;;;;;;2.58;1.77;;;6.60;99.90;;;;;;5049015;28;20501;-80
2021/10/14 00:08:24;;;;;;;;;;;6.60;99.90;;;;;;5049269;28;20028;-80
2021/10/14 00:10:50;;;;;;;3.75;1.55;;;6.60;99.90;;;;;;5049257;28;20403;-80
2021/10/14 00:13:16;;;;;;;;;;;6.60;99.90;;;;;;5047929;28;20047;-80
2021/10/14 00:15:42;;;;;;;2.40;1.35;;;6.60;99.90;;;;;;5048679;28;19908;-80
2021/10/14 00:18:08;;;;;;;2.65;1.73;;;6.60;99.90;;;;;;5046651;28;20382;-80
2021/10/14 00:20:34;;;;;;;;;;;6.60;99.90;;;;;;5049144;28;20493;-80
2021/10/14 00:22:59;;;;;;;2.63;1.67;;;6.60;99.90;;;;;;5048906;28;20262;-80
2021/10/14 00:25:25;;;;;;;;;;;6.60;99.90;;;;;;5047862;28;20516;-79
2021/10/14 00:27:51;;;;;;;2.33;1.17;;;6.60;99.90;;;;;;5046902;28;19905;-80
2021/10/14 00:30:18;;;;;;;2.55;1.50;;;6.60;99.90;;;;;;5046403;28;20036;-80
2021/10/14 00:32:44;;;;;;;3.88;2.00;;;6.60;99.90;;;;;;5047418;28;20056;-79
2021/10/14 00:35:10;;;;;;;;;;;6.60;99.90;;;;;;5049024;28;20779;-79
2021/10/14 00:37:35;;;;;;;3.17;1.25;;;6.60;99.90;;;;;;5048030;28;19912;-79
2021/10/14 00:40:01;;;;;;;;;;;6.70;99.90;;;;;;5047109;28;20141;-80
2021/10/14 00:42:27;;;;;;;2.10;1.48;;;6.70;99.90;;;;;;5046754;28;20003;-81
2021/10/14 00:44:54;;;;;;;;;;;6.70;99.90;;;;;;5048411;28;20104;-80
2021/10/14 00:47:22;;;;;;;2.83;1.80;;;6.70;99.90;;;;;;5046299;28;19940;-79
2021/10/14 00:49:48;;;;;;;2.83;1.55;;;6.70;99.90;;;;;;5046858;28;20520;-79
2021/10/14 00:52:14;;;;;;;3.67;2.20;;;6.70;99.90;;;;;;5047664;28;20077;-79
2021/10/14 00:54:39;;;;;;;;;;;6.70;99.90;;;;;;5047262;28;20024;-80
2021/10/14 00:57:05;;;;;;;3.15;1.45;;;6.70;99.90;;;;;;5046713;28;19905;-80
2021/10/14 00:59:32;;;;;;;;;;;6.70;99.90;;;;;;5048005;28;20493;-80
2021/10/14 01:01:57;;;;;;;3.13;2.05;;;6.70;99.90;;;;;;5045873;28;19970;-80
2021/10/14 01:04:23;;;;;;;;;;;6.70;99.90;;;;;;5046763;28;20064;-80
2021/10/14 01:06:49;;;;;;;3.05;2.00;;;6.70;99.90;;;;;;5047493;28;19940;-78
2021/10/14 01:09:14;;;;;;;;;;;6.70;99.90;;;;;;5047010;28;20036;-79
2021/10/14 01:11:40;;;;;;;4.03;2.45;;;6.70;99.90;;;;;;5047940;28;19912;-80
2021/10/14 01:14:06;;;;;;;;;;;6.70;99.90;;;;;;5047594;28;20036;-78
2021/10/14 01:16:43;;;;;;;3.72;1.95;;;6.80;99.90;;;;;;5046160;28;19908;-80
2021/10/14 01:19:10;;;;;;;4.50;2.00;;;6.70;99.90;;;;;;5047510;28;20112;-79
2021/10/14 01:21:37;;;;;;;3.55;2.15;;;6.70;99.90;;;;;;5047574;28;20041;-79
2021/10/14 01:24:03;;;;;;;3.80;2.25;;;6.80;99.90;;;;;;5046108;28;20032;-79
2021/10/14 01:26:28;;;;;;;;;;;6.80;99.90;;;;;;5047359;28;20116;-80
2021/10/14 01:28:54;;;;;;;4.57;2.75;;;6.70;99.90;;;;;;5047501;28;20003;-78
2021/10/14 01:31:26;;;;;;;;;;;6.70;99.90;;;;;;5047859;28;20147;-79
2021/10/14 01:33:52;;;;;;;4.25;2.28;;;6.70;99.90;;;;;;5047437;28;19904;-80
2021/10/14 01:36:18;;;;;;;3.05;1.83;;;6.70;99.90;;;;;;5045760;28;20021;-80
2021/10/14 01:38:44;;;;;;;;;;;6.70;99.90;;;;;;5047574;28;20252;-80
2021/10/14 01:41:10;;;;;;;5.18;3.17;;;6.70;99.90;;;;;;5045957;28;19983;-80
2021/10/14 01:43:36;;;;;;;;;;;6.70;99.90;;;;;;5047574;28;20776;-79
2021/10/14 01:46:03;;;;;;;4.25;2.83;;;6.70;99.90;;;;;;5046776;28;19908;-79
2021/10/14 01:48:30;;;;;;;4.03;2.42;;;6.70;99.90;;;;;;5045691;28;20520;-80
2021/10/14 01:50:57;;;;;;;3.58;2.35;;;6.70;99.90;;;;;;5046165;28;20568;-79
2021/10/14 01:53:22;;;;;;;2.90;1.88;;;6.60;99.90;;;;;;5045968;28;20068;-80
2021/10/14 01:55:48;;;;;;;;;;;6.60;99.90;;;;;;5047423;28;20033;-80
2021/10/14 01:58:13;;;;;;;3.78;2.35;;;6.70;99.90;;;;;;5046674;28;19999;-80
2021/10/14 02:00:39;;;;;;;;;;;6.70;99.90;;;;;;5046963;28;20422;-80
2021/10/14 02:03:05;;;;;;;4.45;2.20;;;6.60;99.90;;;;;;5045366;28;20373;-81
2021/10/14 02:05:31;;;;;;;4.05;2.25;;;6.70;99.90;;;;;;5045453;28;20529;-79
2021/10/14 02:07:58;;;;;;;3.20;2.10;;;6.60;99.90;;;;;;5045053;28;20037;-80
2021/10/14 02:10:24;;;;;;;4.03;2.17;;;6.70;99.90;;;;;;5046245;28;20025;-80
2021/10/14 02:12:50;;;;;;;;;;;6.70;99.90;;;;;;5046994;28;20033;-80
2021/10/14 02:15:16;;;;;;;2.90;1.80;;;6.70;99.90;;;;;;5045129;28;19913;-81
2021/10/14 02:17:42;;;;;;;;;;;6.70;99.90;;;;;;5045331;28;20105;-79
2021/10/14 02:20:07;;;;;;;5.28;1.92;;;6.80;99.90;;;;;;5044811;28;19916;-80
2021/10/14 02:22:33;;;;;;;4.38;2.45;;;6.80;99.90;;;;;;5045487;28;20033;-79
2021/10/14 02:24:59;;;;;;;;;;;6.80;99.90;;;;;;5048906;28;20037;-78
2021/10/14 02:27:24;;;;;;;5.30;2.65;;;6.80;99.90;;;;;;5048284;28;19915;-79
2021/10/14 02:29:50;;;;;;;;;;;6.80;99.90;;;;;;5046728;28;20029;-80
2021/10/14 02:32:16;;;;;;;3.83;2.28;;;6.80;99.90;;;;;;5046121;28;19962;-80
2021/10/14 02:34:41;;;;;;;;;;;6.70;99.90;;;;;;5045526;28;20060;-80
2021/10/14 02:37:07;;;;;;;4.70;2.65;;;6.80;99.90;;;;;;5046515;28;20373;-80
2021/10/14 02:39:33;;;;;;;3.22;2.17;;;6.70;99.90;;;;;;5044908;28;20033;-79
2021/10/14 02:44:43;;;;;;;4.18;2.80;;;6.70;99.90;;;;;;5046575;28;19914;-78
2021/10/14 02:47:08;;;;;;;;;;;6.70;99.90;;;;;;5045785;28;20107;-81
2021/10/14 02:49:34;;;;;;;5.05;2.85;;;6.70;99.90;;;;;;5046476;28;19951;-81
2021/10/14 02:52:00;;;;;;;4.07;2.97;;;6.60;99.90;;;;;;5046328;28;20575;-80
2021/10/14 02:54:25;;;;;;;;;;;6.60;99.90;;;;;;5046396;28;20029;-80
2021/10/14 02:56:51;;;;;;;3.92;2.83;;;6.60;99.90;;;;;;5044789;28;19908;-80
2021/10/14 02:59:16;;;;;;;;;;;6.50;99.90;;;;;;5046391;28;20078;-80
2021/10/14 03:01:42;;;;;;;4.10;2.58;;;6.60;99.90;;;;;;5049001;28;19916;-80
2021/10/14 03:04:08;;;;;;;;;;;6.60;99.90;;;;;;5050211;28;20430;-81
2021/10/14 03:06:33;;;;;;;3.67;2.67;;;6.60;99.90;;;;;;5047921;28;19905;-79
2021/10/14 03:08:59;;;;;;;;;;;6.50;99.90;;;;;;5050319;28;20482;-81
2021/10/14 03:11:24;;;;;;;4.45;2.50;;;6.60;99.90;;;;;;5049511;28;20438;-80
2021/10/14 03:13:50;;;;;;;;;;;6.50;99.90;;;;;;5050281;28;20453;-80
2021/10/14 03:16:16;;;;;;;4.97;3.15;;;6.60;99.90;;;;;;5048940;28;20352;-79
2021/10/14 03:18:42;;;;;;;;;;;6.50;99.90;;;;;;5050007;28;20489;-80
2021/10/14 03:21:08;;;;;;;4.63;3.28;;;6.60;99.90;;;;;;5048314;28;19924;-80
2021/10/14 03:23:33;;;;;;;;;;;6.60;99.90;;;;;;5048324;28;20025;-80
2021/10/14 03:26:02;;;;;;;6.35;2.72;;;6.60;99.90;;;;;;5049494;28;19955;-79
2021/10/14 03:28:29;;;;;;;3.95;2.80;;;6.60;99.90;;;;;;5049293;28;20082;-80
2021/10/14 03:30:54;;;;;;;6.00;2.65;;;6.60;99.90;;;;;;5047739;28;20647;-80
2021/10/14 03:33:20;;;;;;;;;;;6.60;99.90;;;;;;5048803;28;20029;-80
2021/10/14 03:35:45;;;;;;;5.35;2.67;;;6.70;99.90;;;;;;5049042;28;19908;-80
2021/10/14 03:38:11;;;;;;;;;;;6.60;99.90;;;;;;5049462;28;20155;-79
2021/10/14 03:40:37;;;;;;;6.43;2.80;;;6.60;99.90;;;;;;5047786;28;19917;-80
2021/10/14 03:43:02;;;;;;;;;;;6.60;99.90;;;;;;5049634;28;20035;-80
2021/10/14 03:45:28;;;;;;;7.65;3.85;;;6.70;99.90;;;;;;5048466;28;19908;-79
2021/10/14 03:47:53;;;;;;;;;;;6.70;99.90;;;;;;5048144;28;20043;-80
2021/10/14 03:50:19;;;;;;;12.27;4.97;;;6.70;99.90;;;;;;5049172;28;19916;-80
2021/10/14 03:52:45;;;;;;;;;;;6.70;99.90;;;;;;5047715;28;20052;-80
2021/10/14 03:55:10;;;;;;;3.67;2.33;;;6.70;99.90;;;;;;5047748;28;19912;-81
2021/10/14 03:57:36;;;;;;;;;;;6.70;99.90;;;;;;5049105;28;20096;-80
2021/10/14 04:00:03;;;;;;;3.78;2.20;;;6.70;99.90;;;;;;5047334;28;19960;-80
2021/10/14 04:02:29;;;;;;;4.25;2.38;;;6.70;99.90;;;;;;5047387;28;20033;-79
2021/10/14 04:04:54;;;;;;;;;;;6.70;99.90;;;;;;5048794;28;20032;-80
2021/10/14 04:07:20;;;;;;;3.20;1.88;;;6.70;99.90;;;;;;5047522;28;19909;-79
2021/10/14 04:09:45;;;;;;;;;;;6.70;99.90;;;;;;5048813;28;20033;-80
2021/10/14 04:12:11;;;;;;;6.30;2.78;;;6.70;99.90;;;;;;5047838;28;19908;-80
2021/10/14 04:14:36;;;;;;;4.07;2.47;;;6.70;99.90;;;;;;5046586;28;20114;-80
2021/10/14 04:17:02;;;;;;;;;;;6.80;99.90;;;;;;5047320;28;20751;-80
2021/10/14 04:19:28;;;;;;;5.60;3.03;;;6.70;99.90;;;;;;5048421;28;19905;-80
2021/10/14 04:21:53;;;;;;;;;;;6.70;99.90;;;;;;5047700;28;20037;-80
2021/10/14 04:24:19;;;;;;;7.50;2.85;;;6.70;99.90;;;;;;5048257;28;19905;-80
2021/10/14 04:26:45;;;;;;;;;;;6.70;99.90;;;;;;5048807;28;20021;-80
2021/10/14 04:29:10;;;;;;;6.72;3.92;;;6.80;99.90;;;;;;5048152;28;20534;-80
2021/10/14 04:31:36;;;;;;;;;;;6.70;99.90;;;;;;5048621;28;20029;-80
2021/10/14 04:34:02;;;;;;;8.40;4.45;;;6.80;99.90;;;;;;5047498;28;19909;-80
2021/10/14 04:36:29;;;;;;;;;;;6.70;99.90;;;;;;5048366;28;20036;-78
2021/10/14 04:38:56;;;;;;;8.07;4.40;;;6.80;99.90;;;;;;5046601;28;20381;-79
2021/10/14 04:41:21;;;;;;;10.85;4.70;;;6.80;99.90;;;;;;5046191;28;20036;-79
2021/10/14 04:43:47;;;;;;;;;;;6.70;99.90;;;;;;5048484;28;20029;-79
2021/10/14 04:46:13;;;;;;;12.70;4.60;;;6.80;99.90;;;;;;5047257;28;19909;-79
2021/10/14 04:48:38;;;;;;;;;;;6.70;99.90;;;;;;5046719;28;20029;-79
2021/10/14 04:51:04;;;;;;;6.82;3.33;;;6.80;99.90;;;;;;5047694;28;19909;-78
2021/10/14 04:53:29;;;;;;;9.45;4.72;;;6.80;99.90;;;;;;5046218;28;20110;-79
2021/10/14 04:55:55;;;;;;;9.50;4.85;;;6.80;99.90;;;;;;5047544;28;20029;-79
2021/10/14 04:58:21;;;;;;;;;;;6.80;99.90;;;;;;5047721;28;20033;-79
2021/10/14 05:00:46;;;;;;;8.55;3.78;;;6.80;99.90;;;;;;5047509;28;19919;-80
2021/10/14 05:03:12;;;;;;;7.00;3.65;;;6.80;99.90;;;;;;5046246;28;20016;-78
2021/10/14 05:05:37;;;;;;;;;;;6.80;99.90;;;;;;5046544;28;20040;-80
2021/10/14 05:08:03;;;;;;;4.72;2.78;;;6.80;99.90;;;;;;5047602;28;19911;-79
2021/10/14 05:10:30;;;;;;;;;;;6.80;99.90;;;;;;5046107;28;20508;-79
2021/10/14 05:12:56;;;;;;;5.93;3.15;;;6.80;99.90;;;;;;5046837;28;19908;-80
2021/10/14 05:15:22;;;;;;;;;;;6.80;99.90;;;;;;5045882;28;20033;-80
2021/10/14 05:17:47;;;;;;;5.90;2.90;;;6.80;99.90;;;;;;5047395;28;19912;-80
2021/10/14 05:20:13;;;;;;;6.07;2.83;;;6.90;99.90;;;;;;5047314;28;20036;-80
2021/10/14 05:22:39;;;;;;;;;;;6.90;99.90;;;;;;5045324;28;20032;-80
2021/10/14 05:25:04;;;;;;;4.20;2.50;;;6.90;99.90;;;;;;5046120;28;19915;-79
2021/10/14 05:27:30;;;;;;;4.50;2.58;;;6.80;99.90;;;;;;5045521;28;20094;-81
2021/10/14 05:29:56;;;;;;;;;;;6.90;99.90;;;;;;5045766;28;20065;-79
2021/10/14 05:32:21;;;;;;;4.47;2.60;;;6.90;99.90;;;;;;5045472;28;19915;-80
2021/10/14 05:34:47;;;;;;;;;;;6.90;99.90;;;;;;5047048;28;20055;-81
2021/10/14 05:37:12;;;;;;;6.20;3.28;;;6.90;99.90;;;;;;5047247;28;19955;-80
2021/10/14 05:39:38;;;;;;;;;;;6.90;99.90;;;;;;5046328;28;20036;-81
2021/10/14 05:42:04;;;;;;;4.93;2.88;;;7.00;99.90;;;;;;5047331;28;19958;-80
2021/10/14 05:44:29;;;;;;;;;;;7.00;99.90;;;;;;5045319;28;20028;-80
2021/10/14 05:46:55;;;;;;;9.55;3.63;;;7.10;99.90;;;;;;5045506;28;19904;-79
2021/10/14 05:49:20;;;;;;;8.40;3.97;;;7.10;99.90;;;;;;5045518;28;20064;-78
2021/10/14 05:51:46;;;;;;;;;;;7.10;99.90;;;;;;5045708;28;20075;-78
2021/10/14 05:54:11;;;;;;;6.80;4.10;;;7.10;99.90;;;;;;5046153;28;19917;-80
2021/10/14 05:56:37;;;;;;;;;;;7.10;99.90;;;;;;5047311;28;20104;-78
2021/10/14 05:59:03;;;;;;;7.10;4.38;;;7.10;99.90;;;;;;5045818;28;19912;-79
2021/10/14 06:01:28;;;;;;;;;;;7.10;99.90;;;;;;5047112;28;20037;-79
2021/10/14 06:03:54;;;;;;;6.35;3.50;;;7.10;99.90;;;;;;5046434;28;19915;-79
2021/10/14 06:06:20;;;;;;;;;;;7.20;99.90;;;;;;5047011;28;20476;-78
2021/10/14 06:08:46;;;;;;;28.47;9.07;;;7.20;99.90;;;;;;5044896;28;19909;-79
2021/10/14 06:11:13;;;;;;;24.58;8.50;;;7.20;99.90;;;;;;5045527;28;20329;-80
2021/10/14 06:13:39;;;;;;;17.35;7.07;;;7.30;99.90;;;;;;5044870;28;20425;-79
2021/10/14 06:16:07;;;;;;;;;;;7.30;99.90;;;;;;5045200;28;20474;-78
2021/10/14 06:18:34;;;;;;;18.48;8.57;;;7.30;99.90;;;;;;5046532;28;19909;-77
2021/10/14 06:21:00;;;;;;;17.20;8.07;;;7.30;99.90;;;;;;5046544;28;20040;-79
2021/10/14 06:23:26;;;;;;;;;;;7.30;99.90;;;;;;5045573;28;20375;-79
2021/10/14 06:25:52;;;;;;;18.90;9.40;;;7.30;99.90;;;;;;5046529;28;19912;-80
2021/10/14 06:28:17;;;;;;;;;;;7.40;99.90;;;;;;5046542;28;20363;-79
2021/10/14 06:30:43;;;;;;;15.93;8.02;;;7.40;99.90;;;;;;5046177;28;19905;-79
2021/10/14 06:33:08;;;;;;;;;;;7.40;99.90;;;;;;5045953;28;20040;-79
2021/10/14 06:35:34;;;;;;;16.20;7.53;;;7.40;99.90;;;;;;5047907;28;19911;-80
2021/10/14 06:37:59;;;;;;;;;;;7.40;99.90;;;;;;5050480;28;20489;-79
2021/10/14 06:40:26;;;;;;;11.43;5.55;;;7.30;99.90;;;;;;5050108;28;20027;-78
2021/10/14 06:42:51;;;;;;;11.50;6.85;;;7.30;99.90;;;;;;5049555;28;20481;-77
2021/10/14 06:45:17;;;;;;;;;;;7.40;99.90;;;;;;5048774;28;20036;-80
2021/10/14 06:47:43;;;;;;;9.23;4.75;;;7.40;99.90;;;;;;5048726;28;19912;-79
2021/10/14 06:50:08;;;;;;;;;;;7.30;99.90;;;;;;5051002;28;20041;-80
2021/10/14 06:52:34;;;;;;;7.70;3.97;;;7.30;99.90;;;;;;5048501;28;19920;-79
2021/10/14 06:55:00;;;;;;;;;;;7.40;99.90;;;;;;5050406;28;20025;-79
2021/10/14 06:57:25;;;;;;;6.40;3.53;;;7.40;99.90;;;;;;5050097;28;20274;-79
2021/10/14 06:59:51;;;;;;;;;;;7.40;99.90;;;;;;5050232;28;20041;-80
2021/10/14 07:02:17;;;;;;;8.98;4.57;;;7.40;99.90;;;;;;5049609;28;19904;-78
2021/10/14 07:04:42;;;;;;;;;;;7.40;99.90;;;;;;5050589;28;20111;-79
2021/10/14 07:07:08;;;;;;;10.05;3.83;;;7.50;99.90;;;;;;5048564;28;19924;-80
2021/10/14 07:09:33;;;;;;;;;;;7.50;99.90;;;;;;5049072;28;20033;-79
2021/10/14 07:12:05;;;;;;;8.23;5.30;;;7.60;99.90;;;;;;5049782;28;20035;-79
2021/10/14 07:14:32;;;;;;;7.03;4.68;;;7.70;99.90;;;;;;5047710;28;20036;-79
2021/10/14 07:16:57;;;;;;;7.60;4.85;;;7.80;99.90;;;;;;5049780;28;20028;-79
2021/10/14 07:19:23;;;;;;;;;;;7.80;99.90;;;;;;5048493;28;20090;-80
2021/10/14 07:21:48;;;;;;;20.70;12.52;;;7.90;99.90;;;;;;5048657;28;19921;-80
2021/10/14 07:24:16;;;;;;;;;;;8.00;99.90;;;;;;5049533;28;20025;-79
2021/10/14 07:26:41;;;;;;;14.80;8.35;;;8.00;99.90;;;;;;5049168;28;19913;-79
2021/10/14 07:29:07;;;;;;;;;;;8.10;99.90;;;;;;5049556;28;20032;-79
2021/10/14 07:31:33;;;;;;;15.45;11.27;;;8.20;99.90;;;;;;5049108;28;19999;-79
2021/10/14 07:33:58;;;;;;;;;;;8.30;99.90;;;;;;5049879;28;20080;-79
2021/10/14 07:36:24;;;;;;;8.85;5.05;;;8.40;99.90;;;;;;5047731;28;20053;-78
2021/10/14 07:38:49;;;;;;;;;;;8.40;99.90;;;;;;5048070;28;20029;-78
2021/10/14 07:41:15;;;;;;;4.32;3.53;;;8.50;99.90;;;;;;5048783;28;19917;-78
2021/10/14 07:43:40;;;;;;;;;;;8.60;99.90;;;;;;5049264;28;20050;-78
2021/10/14 07:46:09;;;;;;;4.18;3.03;;;8.60;99.90;;;;;;5046300;28;19909;-79
2021/10/14 07:48:35;;;;;;;5.22;3.42;;;8.70;99.90;;;;;;5048609;28;20024;-77
2021/10/14 07:51:02;;;;;;;7.60;3.90;;;8.80;99.90;;;;;;5047747;28;20033;-79
2021/10/14 07:53:28;;;;;;;5.93;3.92;;;8.80;99.90;;;;;;5047373;28;20041;-79
2021/10/14 07:55:53;;;;;;;;;;;8.90;99.90;;;;;;5049257;28;20113;-78
2021/10/14 07:58:19;;;;;;;6.18;4.03;;;8.90;99.90;;;;;;5048478;28;20094;-78
2021/10/14 08:00:45;;;;;;;;;;;9.00;99.90;;;;;;5049188;28;20090;-79
2021/10/14 08:03:11;;;;;;;4.10;2.60;;;9.10;99.90;;;;;;5048411;28;20625;-78
2021/10/14 08:05:37;;;;;;;5.32;3.00;;;9.10;99.90;;;;;;5048348;28;20025;-79
2021/10/14 08:08:04;;;;;;;;;;;9.20;99.90;;;;;;5049197;28;20021;-78
2021/10/14 08:10:31;;;;;;;5.88;3.42;;;9.30;99.90;;;;;;5047274;28;19905;-78
2021/10/14 08:12:57;;;;;;;6.55;3.78;;;9.30;99.90;;;;;;5047666;28;20028;-78
2021/10/14 08:15:23;;;;;;;;;;;9.50;99.90;;;;;;5048740;28;20063;-78
2021/10/14 08:17:48;;;;;;;8.70;5.07;;;9.60;99.90;;;;;;5046185;28;19999;-79
2021/10/14 08:20:14;;;;;;;;;;;9.60;99.90;;;;;;5048398;28;20079;-79
2021/10/14 08:22:40;;;;;;;5.93;2.40;;;9.70;99.90;;;;;;5048376;28;20342;-82
2021/10/14 08:25:07;;;;;;;;;;;9.70;99.90;;;;;;5048987;28;20188;-80
2021/10/14 08:27:32;;;;;;;3.90;2.63;;;9.80;99.90;;;;;;5047586;28;20656;-82
2021/10/14 08:29:58;;;;;;;;;;;9.80;99.90;;;;;;5047749;28;20025;-79
2021/10/14 08:32:24;;;;;;;6.63;3.30;;;9.80;99.90;;;;;;5047969;28;20089;-80
2021/10/14 08:34:49;;;;;;;;;;;9.90;99.90;;;;;;5048755;28;20072;-78
2021/10/14 08:37:21;;;;;;;7.38;2.92;;;9.80;99.90;;;;;;5046440;28;19908;-79
2021/10/14 08:39:47;;;;;;;4.55;2.85;;;9.80;99.90;;;;;;5048304;28;20567;-80
2021/10/14 08:42:13;;;;;;;7.00;3.17;;;9.90;99.90;;;;;;5046272;28;20032;-80
2021/10/14 08:44:40;;;;;;;;;;;9.80;99.90;;;;;;5047022;28;20566;-80
2021/10/14 08:47:06;;;;;;;5.20;2.85;;;9.80;99.90;;;;;;5048207;28;20357;-80
2021/10/14 08:49:31;;;;;;;;;;;9.80;99.90;;;;;;5046611;28;20032;-80
2021/10/14 08:51:57;;;;;;;5.15;3.08;;;9.90;99.90;;;;;;5046236;28;20306;-79
2021/10/14 08:54:23;;;;;;;;;;;9.90;99.60;;;;;;5048021;28;20033;-78
2021/10/14 08:56:50;;;;;;;4.68;2.63;;;9.90;99.70;;;;;;5045875;28;19904;-79
2021/10/14 08:59:19;;;;;;;5.40;2.80;;;10.00;99.30;;;;;;5047920;28;20033;-79
2021/10/14 09:02:07;;;;;;;4.47;2.85;;;10.00;98.80;;;;;;5047601;28;20052;-78
2021/10/14 09:04:35;;;;;;;;;;;10.00;98.40;;;;;;5048047;28;20057;-79
2021/10/14 09:07:19;;;;;;;5.50;3.40;;;10.00;98.80;;;;;;5046946;28;20455;-78
2021/10/14 09:09:46;;;;;;;5.53;3.42;;;10.10;98.10;;;;;;5047540;28;20537;-81
2021/10/14 09:12:14;;;;;;;5.63;3.38;;;10.20;98.90;;;;;;5045415;28;20350;-81
2021/10/14 09:15:04;;;;;;;9.23;3.78;;;10.30;99.50;;;;;;5047555;28;20039;-82
2021/10/14 09:17:55;;;;;;;11.77;4.90;;;10.40;99.30;;;;;;5046987;28;20035;-81
2021/10/14 09:20:20;;;;;;;4.95;3.47;;;10.50;99.00;;;;;;5047174;28;20037;-82
2021/10/14 09:22:53;;;;;;;;;;;10.60;98.80;;;;;;5046585;28;20032;-81
2021/10/14 09:25:38;;;;;;;6.70;3.25;;;10.70;98.70;;;;;;5047075;28;19915;-81
2021/10/14 09:28:10;;;;;;;4.43;2.83;;;10.70;98.80;;;;;;5045108;28;20529;-81
2021/10/14 09:31:03;;;;;;;5.72;2.92;;;10.80;98.60;;;;;;5047023;28;20037;-81
2021/10/14 09:33:36;;;;;;;4.50;2.80;;;10.90;98.30;;;;;;5045789;28;20122;-78
2021/10/14 09:36:28;;;;;;;5.90;3.22;;;11.00;97.90;;;;;;5045773;28;20032;-78
2021/10/14 09:39:03;;;;;;;3.88;2.47;;;11.10;97.30;;;;;;5046806;28;20028;-80
2021/10/14 09:41:30;;;;;;;8.77;2.75;;;11.20;97.60;;;;;;5046356;28;20033;-80
2021/10/14 09:44:08;;;;;;;4.35;2.08;;;11.30;97.50;;;;;;5045559;28;20047;-80
2021/10/14 09:46:46;;;;;;;4.70;2.53;;;11.50;96.00;;;;;;5045004;28;20116;-81
2021/10/14 09:49:13;;;;;;;5.22;3.03;;;11.50;94.90;;;;;;5046391;28;20036;-78
2021/10/14 09:51:40;;;;;;;4.32;2.60;;;11.70;95.10;;;;;;5045044;28;20053;-78
2021/10/14 09:54:06;;;;;;;3.35;1.95;;;11.80;93.10;;;;;;5045012;28;20115;-79
2021/10/14 09:56:32;;;;;;;;;;;12.00;92.90;;;;;;5046544;28;20091;-78
2021/10/14 09:59:01;;;;;;;3.95;2.33;;;12.10;92.40;;;;;;5044859;28;19924;-78
2021/10/14 10:01:28;;;;;;;4.28;2.47;;;12.20;90.60;;;;;;5041803;28;20025;-78
2021/10/14 10:03:55;;;;;;;4.47;2.55;;;12.20;89.70;;;;;;5043766;28;20055;-78
2021/10/14 10:06:32;;;;;;;5.65;2.90;;;12.10;89.30;;;;;;5043633;28;20033;-78
2021/10/14 10:09:15;;;;;;;5.15;2.55;;;12.10;86.90;;;;;;5041935;28;20040;-79
2021/10/14 10:12:01;;;;;;;4.88;2.78;;;12.20;87.60;;;;;;5042931;28;20029;-77
2021/10/14 10:14:27;;;;;;;7.88;4.38;;;12.50;87.30;;;;;;5045053;28;20533;-79
2021/10/14 10:17:14;;;;;;;8.13;4.00;;;12.70;86.60;;;;;;5043841;28;20124;-79
2021/10/14 10:19:48;;;;;;;11.32;3.08;;;12.90;82.90;;;;;;5045361;28;20592;-78
2021/10/14 10:22:33;;;;;;;6.60;3.50;;;12.90;82.70;;;;;;5041154;28;20593;-78
2021/10/14 10:25:15;;;;;;;3.80;2.25;;;12.70;81.70;;;;;;5041128;28;20071;-80
2021/10/14 10:27:41;;;;;;;4.07;2.22;;;12.70;82.70;;;;;;5041981;28;20045;-79
2021/10/14 10:30:06;;;;;;;;;;;12.80;83.70;;;;;;5042903;28;20102;-80
2021/10/14 10:32:42;;;;;;;6.07;2.80;;;13.10;81.90;;;;;;5042743;28;19943;-80
2021/10/14 10:35:11;;;;;;;3.87;2.10;;;13.20;83.30;;;;;;5042979;28;20036;-80
2021/10/14 10:37:45;;;;;;;5.10;2.70;;;13.30;82.40;;;;;;5044998;28;20706;-80
2021/10/14 10:40:13;;;;;;;4.95;2.92;;;13.50;79.80;;;;;;5038761;28;20033;-80
2021/10/14 10:42:45;;;;;;;3.88;1.88;;;13.40;79.70;;;;;;5043544;28;20395;-80
2021/10/14 10:45:18;;;;;;;3.40;2.00;;;13.70;78.00;;;;;;5041632;28;20033;-80
2021/10/14 10:47:53;;;;;;;3.63;1.83;;;13.60;76.60;;;;;;5045057;28;20094;-80
2021/10/14 10:50:33;;;;;;;3.55;1.90;;;13.50;75.30;;;;;;5044884;28;20029;-78
2021/10/14 10:53:03;;;;;;;3.28;2.20;;;13.60;74.60;;;;;;5044853;28;20045;-79
2021/10/14 10:55:38;;;;;;;4.60;2.17;;;13.60;74.60;;;;;;5041663;28;20041;-79
2021/10/14 10:58:07;;;;;;;3.55;2.05;;;13.50;75.00;;;;;;5044722;28;20033;-79
2021/10/14 11:00:33;;;;;;;5.28;2.65;;;13.40;72.70;;;;;;5040176;28;20069;-79
2021/10/14 11:03:18;;;;;;;3.45;2.50;;;13.20;73.40;;;;;;5037773;28;20469;-79
2021/10/14 11:05:45;;;;;;;5.35;2.03;;;13.00;74.50;;;;;;5040139;28;20029;-79
2021/10/14 11:08:16;;;;;;;5.47;1.83;;;13.00;76.60;;;;;;5044632;28;20048;-79
2021/10/14 11:10:42;;;;;;;3.25;2.38;;;13.00;74.80;;;;;;5043875;28;20059;-80
2021/10/14 11:13:07;;;;;;;;;;;12.70;76.10;;;;;;5044047;28;20390;-80
2021/10/14 11:15:33;;;;;;;5.55;2.00;;;12.60;75.40;;;;;;5045039;28;19924;-79
2021/10/14 11:18:03;;;;;;;3.95;2.40;;;12.50;76.30;;;;;;5042983;28;20033;-79
2021/10/14 11:20:30;;;;;;;4.72;2.00;;;12.50;77.20;;;;;;5042978;28;20186;-79
2021/10/14 11:23:08;;;;;;;4.10;1.77;;;12.50;75.70;;;;;;5046500;28;20568;-79
2021/10/14 11:25:35;;;;;;;13.48;4.03;;;12.60;76.10;;;;;;5041878;28;20135;-79
2021/10/14 11:28:08;;;;;;;6.90;2.92;;;12.80;76.90;;;;;;5048203;28;20060;-78
2021/10/14 11:30:48;;;;;;;5.03;2.28;;;13.00;75.40;;;;;;5045921;28;20041;-78
2021/10/14 11:33:34;;;;;;;3.75;2.15;;;13.10;76.40;;;;;;5047577;28;20044;-78
2021/10/14 11:36:07;;;;;;;3.75;2.08;;;13.20;75.60;;;;;;5044812;28;20106;-79
2021/10/14 11:38:34;;;;;;;4.53;2.13;;;13.10;74.70;;;;;;5044499;28;20033;-78
2021/10/14 11:41:01;;;;;;;5.90;2.47;;;13.00;75.60;;;;;;5046626;28;20047;-79
2021/10/14 11:43:29;;;;;;;6.10;2.78;;;13.10;75.70;;;;;;5041591;28;20078;-77
2021/10/14 11:45:56;;;;;;;4.13;1.75;;;13.10;74.80;;;;;;5044337;28;20048;-78
2021/10/14 11:48:27;;;;;;;6.18;2.17;;;13.10;76.00;;;;;;5046207;28;20072;-78
2021/10/14 11:51:09;;;;;;;4.70;2.03;;;13.30;76.90;;;;;;5044477;28;20127;-78
2021/10/14 11:53:37;;;;;;;6.95;2.65;;;13.60;75.50;;;;;;5042079;28;20052;-78
2021/10/14 11:56:05;;;;;;;3.50;2.17;;;13.80;75.30;;;;;;5046337;28;20087;-78
2021/10/14 11:58:35;;;;;;;4.82;2.13;;;14.00;72.90;;;;;;5044418;28;20048;-78
2021/10/14 12:01:12;;;;;;;4.10;2.30;;;13.80;72.00;;;;;;5046020;28;20136;-79
2021/10/14 12:03:41;;;;;;;3.30;1.95;;;13.60;73.50;;;;;;5045465;28;20037;-79
2021/10/14 12:06:08;;;;;;;3.25;2.03;;;13.50;73.50;;;;;;5044891;28;20037;-78
2021/10/14 12:08:34;;;;;;;9.35;2.55;;;13.50;75.10;;;;;;5046881;28;20044;-78
2021/10/14 12:11:00;;;;;;;4.13;1.98;;;13.50;75.30;;;;;;5044938;28;20354;-80
2021/10/14 12:13:26;;;;;;;;;;;13.50;74.60;;;;;;5047489;28;20040;-79
2021/10/14 12:16:12;;;;;;;5.10;2.60;;;13.30;75.70;;;;;;5043663;28;19920;-79
2021/10/14 12:18:38;;;;;;;4.55;2.40;;;13.20;77.70;;;;;;5042831;28;20037;-78
2021/10/14 12:21:23;;;;;;;;;;;13.10;77.40;;;;;;5044061;28;20029;-79
2021/10/14 12:24:04;;;;;;;6.15;2.60;;;13.00;78.90;;;;;;5044816;28;19917;-78
2021/10/14 12:26:43;;;;;;;4.60;2.67;;;13.00;78.10;;;;;;5046732;28;20025;-78
2021/10/14 12:29:25;;;;;;;4.40;2.78;;;12.90;78.20;;;;;;5047136;28;20044;-79
2021/10/14 12:32:06;;;;;;;5.25;2.53;;;12.90;78.70;;;;;;5046149;28;20040;-78
2021/10/14 12:34:58;;;;;;;4.95;2.58;;;12.80;79.10;;;;;;5046877;28;20577;-79
2021/10/14 12:37:27;;;;;;;4.35;2.80;;;12.80;79.30;;;;;;5047014;28;20045;-77
2021/10/14 12:40:29;;;;;;;9.80;3.45;;;12.80;80.10;;;;;;5041913;28;20135;-78
2021/10/14 12:43:18;;;;;;;11.30;3.33;;;12.90;80.30;;;;;;5019706;28;20558;-80
2021/10/14 12:51:05;;;;;;;6.65;3.10;;;13.00;80.70;;;;;;5045772;28;20055;-77
2021/10/14 12:53:48;;;;;;;6.80;3.30;;;13.20;80.40;;;;;;5042498;28;20059;-79
2021/10/14 12:56:16;;;;;;;11.27;3.47;;;13.40;80.60;;;;;;5045731;28;20083;-79
2021/10/14 12:58:43;;;;;;;9.00;2.80;;;13.50;79.90;;;;;;5046204;28;20037;-78
2021/10/14 13:01:13;;;;;;;8.60;2.97;;;13.50;79.90;;;;;;5045189;28;20033;-78
2021/10/14 13:03:39;;;;;;;7.43;2.58;;;13.50;79.80;;;;;;5045266;28;20527;-78
2021/10/14 13:06:06;;;;;;;5.53;2.80;;;13.50;79.50;;;;;;5044180;28;20503;-78
2021/10/14 13:08:42;;;;;;;5.68;2.85;;;13.50;79.40;;;;;;5043651;28;20160;-77
2021/10/14 13:11:09;;;;;;;;;;;13.50;80.20;;;;;;5046616;28;20039;-78
2021/10/14 13:13:36;;;;;;;17.98;13.80;;;13.40;80.00;;;;;;5046352;28;19913;-79
2021/10/14 13:16:03;;;;;;;20.27;9.20;;;13.30;80.60;;;;;;5046546;28;20041;-80
2021/10/14 13:18:29;;;;;;;9.90;6.28;;;13.10;81.00;;;;;;5045597;28;20459;-79
2021/10/14 13:21:00;;;;;;;18.95;12.65;;;13.10;81.80;;;;;;5047108;28;20478;-80
2021/10/14 13:23:27;;;;;;;9.25;6.82;;;13.00;82.50;;;;;;5047489;28;20079;-80
2021/10/14 13:25:55;;;;;;;8.23;4.75;;;12.90;82.20;;;;;;5045899;28;20087;-78
2021/10/14 13:28:24;;;;;;;8.38;3.63;;;12.90;82.30;;;;;;5045808;28;20043;-79
2021/10/14 13:30:50;;;;;;;9.38;3.75;;;12.70;83.20;;;;;;5044643;28;20051;-78